Time;durP1;ratioP1;P1;durP2;ratioP2;P2;SDS_P1;SDS_P2;PMS_P1;PMS_P2;Temp;Humidity;BMP_temperature;BMP_pressure;BME280_temperature;BME280_humidity;BME280_pressure;Samples;Min_cycle;Max_cycle;Signal;HPM_P1;HPM_P2
2022/06/10 00:01:40;;;;;;;8.40;3.88;;;9.20;93.40;;;;;;5048277;28;20029;-69
2022/06/10 00:04:05;;;;;;;13.88;3.85;;;9.10;93.60;;;;;;5051065;28;20029;-70
2022/06/10 00:06:34;;;;;;;7.07;3.72;;;9.10;92.90;;;;;;5052387;28;20034;-69
2022/06/10 00:08:59;;;;;;;8.55;3.80;;;9.10;93.10;;;;;;5053492;28;20405;-69
2022/06/10 00:11:25;;;;;;;8.90;3.15;;;9.00;93.30;;;;;;5054063;28;20032;-69
2022/06/10 00:13:50;;;;;;;7.80;3.28;;;8.90;93.30;;;;;;5049361;28;20045;-69
2022/06/10 00:16:19;;;;;;;9.02;3.60;;;8.90;92.50;;;;;;5038040;28;20041;-69
2022/06/10 00:18:46;;;;;;;8.82;3.78;;;8.90;92.60;;;;;;5047404;28;20033;-69
2022/06/10 00:21:14;;;;;;;6.45;3.50;;;9.00;91.60;;;;;;4961619;28;20021;-68
2022/06/10 00:23:43;;;;;;;8.95;3.70;;;9.00;92.70;;;;;;5052612;28;20056;-69
2022/06/10 00:26:10;;;;;;;7.97;3.33;;;8.90;92.60;;;;;;5040335;28;20029;-69
2022/06/10 00:28:36;;;;;;;9.35;3.97;;;8.80;92.80;;;;;;5046609;28;20390;-71
2022/06/10 00:31:01;;;;;;;10.48;3.72;;;8.80;92.10;;;;;;5047235;28;20060;-71
2022/06/10 00:33:27;;;;;;;12.43;4.80;;;8.70;92.40;;;;;;5049457;28;20021;-70
2022/06/10 00:35:53;;;;;;;7.90;3.47;;;8.60;91.60;;;;;;5048316;28;20049;-70
2022/06/10 00:38:19;;;;;;;9.68;4.00;;;8.70;91.50;;;;;;5057991;28;20110;-70
2022/06/10 00:40:51;;;;;;;8.18;3.60;;;8.60;91.90;;;;;;5056480;28;20079;-70
2022/06/10 00:43:20;;;;;;;7.68;3.40;;;8.60;91.90;;;;;;5052681;28;20021;-69
2022/06/10 00:46:00;;;;;;;7.50;3.70;;;8.60;90.90;;;;;;5051708;28;20071;-69
2022/06/10 00:49:05;;;;;;;7.78;3.72;;;8.70;91.70;;;;;;5045049;28;20098;-69
2022/06/10 00:51:44;;;;;;;7.80;3.53;;;8.60;92.20;;;;;;5053937;28;20017;-70
2022/06/10 00:54:35;;;;;;;5.88;3.95;;;8.50;91.70;;;;;;5050338;28;20032;-69
2022/06/10 00:57:13;;;;;;;10.85;4.45;;;8.40;91.70;;;;;;5047013;28;20028;-69
2022/06/10 00:59:52;;;;;;;7.65;4.30;;;8.40;90.80;;;;;;5053935;28;20109;-69
2022/06/10 01:02:25;;;;;;;9.48;3.50;;;8.40;90.80;;;;;;5054788;28;20029;-69
2022/06/10 01:04:53;;;;;;;10.02;4.30;;;8.50;89.90;;;;;;5048708;28;20067;-69
2022/06/10 01:07:27;;;;;;;9.48;4.00;;;8.60;90.20;;;;;;5056043;28;20112;-69
2022/06/10 01:09:53;;;;;;;14.18;4.85;;;8.70;90.90;;;;;;5049683;28;20032;-69
2022/06/10 01:12:41;;;;;;;8.18;3.40;;;8.70;91.10;;;;;;5037701;28;20041;-69
2022/06/10 01:15:30;;;;;;;7.53;3.60;;;8.60;91.50;;;;;;5051170;28;20033;-69
2022/06/10 01:18:17;;;;;;;9.65;4.13;;;8.50;91.70;;;;;;5043002;28;20110;-69
2022/06/10 01:20:53;;;;;;;9.20;4.10;;;8.30;91.60;;;;;;5051572;28;20029;-69
2022/06/10 01:23:40;;;;;;;6.35;4.00;;;8.30;91.10;;;;;;5053030;28;20021;-69
2022/06/10 01:26:27;;;;;;;13.00;4.95;;;8.20;91.00;;;;;;5047367;28;20025;-69
2022/06/10 01:29:04;;;;;;;16.48;5.13;;;8.20;90.20;;;;;;5046597;28;20036;-69
2022/06/10 01:32:00;;;;;;;8.65;4.25;;;8.20;90.40;;;;;;5051235;28;20036;-69
2022/06/10 01:34:42;;;;;;;16.50;4.97;;;8.20;90.40;;;;;;5048704;28;20372;-69
2022/06/10 01:37:14;;;;;;;9.10;3.80;;;8.20;89.30;;;;;;5050802;28;20051;-69
2022/06/10 01:39:56;;;;;;;10.48;4.05;;;8.20;89.80;;;;;;5048048;28;20075;-69
2022/06/10 01:42:29;;;;;;;10.20;4.35;;;8.20;89.20;;;;;;5046550;28;20047;-69
2022/06/10 01:45:13;;;;;;;9.23;4.95;;;8.40;89.40;;;;;;5047272;28;20021;-69
2022/06/10 01:47:44;;;;;;;6.05;3.70;;;8.30;89.90;;;;;;5041565;28;20029;-69
2022/06/10 01:50:18;;;;;;;9.45;4.20;;;8.30;89.60;;;;;;5054272;28;20033;-69
2022/06/10 01:52:56;;;;;;;10.35;4.68;;;8.20;89.90;;;;;;5040942;28;20040;-69
2022/06/10 01:55:50;;;;;;;9.65;4.40;;;8.30;88.90;;;;;;5047402;28;20029;-69
2022/06/10 01:58:20;;;;;;;;;;;8.20;89.70;;;;;;5045017;28;20449;-69
2022/06/10 02:00:49;;;;;;;10.43;4.72;;;8.30;88.60;;;;;;5052360;28;20375;-69
2022/06/10 02:03:45;;;;;;;15.35;4.75;;;8.40;89.20;;;;;;5052739;28;20029;-69
2022/06/10 02:06:20;;;;;;;12.98;4.95;;;8.40;89.70;;;;;;5047680;28;20037;-69
2022/06/10 02:09:01;;;;;;;14.02;4.55;;;8.30;89.40;;;;;;5050391;28;20022;-69
2022/06/10 02:11:30;;;;;;;9.63;4.03;;;8.30;89.30;;;;;;5052057;28;20350;-69
2022/06/10 02:14:01;;;;;;;7.82;4.03;;;8.30;90.10;;;;;;5046182;28;20029;-69
2022/06/10 02:16:31;;;;;;;10.73;4.95;;;8.10;90.60;;;;;;5055857;28;20469;-69
2022/06/10 02:19:19;;;;;;;10.20;4.75;;;7.90;90.60;;;;;;5047783;28;20033;-69
2022/06/10 02:21:49;;;;;;;10.82;4.93;;;7.80;89.10;;;;;;5043251;28;20091;-69
2022/06/10 02:24:22;;;;;;;10.73;5.03;;;8.00;88.20;;;;;;5049734;28;20079;-69
2022/06/10 02:26:50;;;;;;;14.68;5.13;;;8.10;88.00;;;;;;5054021;28;20029;-69
2022/06/10 02:29:30;;;;;;;8.68;4.50;;;8.10;87.70;;;;;;5053388;28;20037;-69
2022/06/10 02:31:59;;;;;;;11.63;5.22;;;8.20;87.10;;;;;;5050486;28;20064;-69
2022/06/10 02:34:26;;;;;;;14.25;4.95;;;8.30;87.30;;;;;;5048138;28;20034;-69
2022/06/10 02:37:17;;;;;;;12.10;4.70;;;8.50;87.60;;;;;;5052594;28;20029;-69
2022/06/10 02:40:16;;;;;;;18.25;5.20;;;8.60;88.80;;;;;;5048381;28;20025;-69
2022/06/10 02:43:09;;;;;;;11.50;4.30;;;8.50;89.50;;;;;;5048172;28;20418;-69
2022/06/10 02:45:53;;;;;;;12.40;4.35;;;8.60;89.30;;;;;;5047329;28;20491;-69
2022/06/10 02:48:22;;;;;;;;;;;8.60;89.50;;;;;;5054008;28;20108;-69
2022/06/10 02:50:47;;;;;;;11.18;4.18;;;8.50;90.20;;;;;;5056671;28;19908;-69
2022/06/10 02:53:13;;;;;;;10.63;4.20;;;8.50;89.60;;;;;;5050854;28;20036;-69
2022/06/10 02:55:39;;;;;;;14.60;4.70;;;8.60;89.40;;;;;;5054490;28;20029;-69
2022/06/10 03:01:20;;;;;;;13.05;5.28;;;8.50;90.50;;;;;;5049518;28;20470;-69
2022/06/10 03:03:58;;;;;;;9.00;4.30;;;8.40;90.70;;;;;;5045246;28;20115;-69
2022/06/10 03:06:39;;;;;;;14.00;4.57;;;8.20;90.90;;;;;;5052137;28;20025;-69
2022/06/10 03:09:19;;;;;;;10.65;4.68;;;8.20;90.00;;;;;;5053563;28;20058;-69
2022/06/10 03:11:53;;;;;;;11.13;5.10;;;8.20;89.80;;;;;;5052115;28;20031;-69
2022/06/10 03:14:29;;;;;;;13.57;5.47;;;8.20;89.80;;;;;;5051660;28;20802;-69
2022/06/10 03:16:57;;;;;;;11.25;4.60;;;8.20;89.00;;;;;;5051521;28;20060;-68
2022/06/10 03:19:35;;;;;;;12.43;5.32;;;8.30;88.80;;;;;;5053410;28;20025;-69
2022/06/10 03:22:21;;;;;;;12.95;5.57;;;8.20;88.90;;;;;;5050319;28;20429;-68
2022/06/10 03:25:05;;;;;;;13.02;4.35;;;8.30;88.10;;;;;;5044575;28;20037;-70
2022/06/10 03:28:03;;;;;;;14.27;5.45;;;8.30;88.80;;;;;;5055036;28;20044;-70
2022/06/10 03:30:39;;;;;;;13.18;4.40;;;8.30;87.30;;;;;;5050382;28;20230;-69
2022/06/10 03:33:15;;;;;;;16.92;6.15;;;8.50;87.60;;;;;;5047000;28;20112;-70
2022/06/10 03:36:01;;;;;;;13.20;4.60;;;8.60;88.80;;;;;;5043349;28;20018;-69
2022/06/10 03:38:30;;;;;;;9.30;4.40;;;8.50;88.70;;;;;;5051739;28;20376;-69
2022/06/10 03:40:58;;;;;;;12.50;5.05;;;8.50;88.40;;;;;;5050039;28;20136;-69
2022/06/10 03:43:24;;;;;;;12.40;4.15;;;8.50;88.40;;;;;;5046705;28;20044;-69
2022/06/10 03:45:58;;;;;;;6.82;3.80;;;8.50;89.60;;;;;;5050154;28;20372;-70
2022/06/10 03:48:25;;;;;;;11.05;5.38;;;8.30;89.80;;;;;;5047778;28;20021;-69
2022/06/10 03:50:51;;;;;;;13.05;4.55;;;8.30;88.80;;;;;;5043894;28;20055;-69
2022/06/10 03:53:20;;;;;;;13.60;5.05;;;8.30;89.20;;;;;;5052496;28;20029;-69
2022/06/10 03:55:49;;;;;;;11.73;5.07;;;8.30;89.30;;;;;;5045093;28;20032;-69
2022/06/10 03:58:16;;;;;;;9.48;4.32;;;8.20;89.00;;;;;;5045476;28;20040;-69
2022/06/10 04:00:42;;;;;;;12.10;4.40;;;8.20;88.50;;;;;;5050011;28;20021;-69
2022/06/10 04:03:08;;;;;;;14.85;5.80;;;8.20;88.70;;;;;;5052592;28;20029;-69
2022/06/10 04:05:34;;;;;;;11.30;4.93;;;8.30;88.20;;;;;;5046828;28;20359;-69
2022/06/10 04:08:00;;;;;;;11.48;5.18;;;8.30;88.00;;;;;;5045033;28;20104;-69
2022/06/10 04:10:28;;;;;;;11.38;4.53;;;8.40;87.00;;;;;;5053254;28;20060;-69
2022/06/10 04:12:54;;;;;;;13.88;5.00;;;8.50;87.30;;;;;;5040790;28;20079;-69
2022/06/10 04:15:20;;;;;;;14.60;5.47;;;8.60;87.20;;;;;;5041032;28;20029;-69
2022/06/10 04:17:50;;;;;;;11.38;5.40;;;8.70;87.50;;;;;;5050311;28;20029;-69
2022/06/10 04:20:19;;;;;;;9.90;5.68;;;8.80;87.20;;;;;;5056920;28;20025;-70
2022/06/10 04:22:45;;;;;;;10.25;5.00;;;8.90;87.80;;;;;;5057227;28;20421;-70
2022/06/10 04:25:10;;;;;;;11.02;4.60;;;9.00;88.20;;;;;;5058347;28;20077;-70
2022/06/10 04:27:36;;;;;;;11.25;4.90;;;9.00;88.60;;;;;;5048674;28;20036;-70
2022/06/10 04:30:05;;;;;;;11.45;5.43;;;9.10;89.10;;;;;;5052020;28;20033;-70
2022/06/10 04:32:30;;;;;;;9.95;4.40;;;9.10;89.80;;;;;;5051152;28;20021;-69
2022/06/10 04:34:56;;;;;;;12.45;4.47;;;9.10;90.30;;;;;;5050873;28;20044;-69
2022/06/10 04:37:22;;;;;;;15.88;5.68;;;9.10;90.60;;;;;;5057613;28;20455;-69
2022/06/10 04:39:48;;;;;;;12.90;4.82;;;9.20;91.10;;;;;;5055369;28;20032;-69
2022/06/10 04:42:14;;;;;;;9.48;4.68;;;9.20;91.20;;;;;;5055365;28;20048;-70
2022/06/10 04:44:39;;;;;;;14.07;4.90;;;9.20;91.10;;;;;;5047104;28;20030;-69
2022/06/10 04:47:07;;;;;;;9.80;4.88;;;9.20;91.10;;;;;;5053510;28;20027;-69
2022/06/10 04:49:35;;;;;;;11.25;4.72;;;9.30;91.10;;;;;;5052199;28;20084;-69
2022/06/10 04:52:01;;;;;;;12.82;5.93;;;9.30;91.10;;;;;;5056015;28;20378;-69
2022/06/10 04:54:26;;;;;;;9.18;4.75;;;9.30;90.70;;;;;;5054845;28;20063;-69
2022/06/10 04:56:55;;;;;;;9.38;4.80;;;9.40;90.80;;;;;;5057723;28;20025;-69
2022/06/10 04:59:21;;;;;;;9.77;4.53;;;9.40;90.80;;;;;;5053969;28;20029;-70
2022/06/10 05:01:46;;;;;;;9.23;4.75;;;9.50;90.80;;;;;;5056293;28;20513;-70
2022/06/10 05:04:12;;;;;;;11.18;4.75;;;9.50;90.40;;;;;;5045565;28;20033;-69
2022/06/10 05:06:37;;;;;;;12.82;4.82;;;9.60;90.40;;;;;;5050995;28;20048;-69
2022/06/10 05:09:03;;;;;;;8.73;4.50;;;9.60;90.30;;;;;;5053359;28;20044;-69
2022/06/10 05:11:29;;;;;;;7.38;4.00;;;9.70;90.20;;;;;;5055552;28;20041;-69
2022/06/10 05:13:57;;;;;;;14.30;4.70;;;9.80;89.80;;;;;;5051944;28;20087;-69
2022/06/10 05:16:25;;;;;;;9.98;5.13;;;9.90;90.30;;;;;;5050338;28;20116;-69
2022/06/10 05:18:50;;;;;;;11.10;4.10;;;10.10;90.90;;;;;;5054062;28;20109;-69
2022/06/10 05:21:16;;;;;;;12.98;4.85;;;10.20;91.10;;;;;;5047307;28;20100;-69
2022/06/10 05:23:45;;;;;;;11.25;3.97;;;10.30;91.00;;;;;;5055508;28;20364;-69
2022/06/10 05:26:12;;;;;;;10.85;3.95;;;10.40;90.90;;;;;;5044185;28;20038;-70
2022/06/10 05:28:38;;;;;;;16.42;5.90;;;10.60;91.60;;;;;;5053038;28;20017;-69
2022/06/10 05:31:03;;;;;;;10.65;4.45;;;10.70;92.30;;;;;;5054120;28;20325;-68
2022/06/10 05:34:44;;;;;;;10.80;3.88;;;10.90;94.00;;;;;;5053802;28;20029;-69
2022/06/10 05:36:15;;;;;;;10.07;4.28;;;11.10;94.50;;;;;;5052529;28;20421;-69
2022/06/10 05:38:41;;;;;;;8.68;4.20;;;11.30;94.60;;;;;;5046715;28;20028;-70
2022/06/10 05:43:51;;;;;;;14.52;4.43;;;11.70;95.60;;;;;;5050487;28;20070;-68
2022/06/10 05:46:17;;;;;;;7.53;3.38;;;11.90;96.30;;;;;;5048641;28;21282;-70
2022/06/10 05:48:44;;;;;;;10.27;3.65;;;12.10;96.60;;;;;;5054904;28;20075;-68
2022/06/10 05:51:11;;;;;;;8.93;3.45;;;12.30;97.30;;;;;;5052082;28;20029;-69
2022/06/10 05:53:37;;;;;;;6.72;3.10;;;12.40;98.00;;;;;;5054265;28;20021;-69
2022/06/10 05:56:02;;;;;;;6.53;2.83;;;12.60;98.00;;;;;;5051669;28;20035;-69
2022/06/10 05:58:28;;;;;;;8.93;2.60;;;12.80;98.00;;;;;;5043538;28;20029;-69
2022/06/10 06:00:54;;;;;;;9.43;3.05;;;13.00;98.00;;;;;;5045624;28;20518;-70
2022/06/10 06:03:19;;;;;;;8.45;2.60;;;13.20;98.00;;;;;;5057666;28;20132;-69
2022/06/10 06:05:45;;;;;;;9.93;3.22;;;13.40;98.00;;;;;;5057793;28;20436;-70
2022/06/10 06:08:11;;;;;;;10.35;2.75;;;13.50;98.00;;;;;;5057614;28;20406;-70
2022/06/10 06:10:36;;;;;;;10.23;2.83;;;13.50;97.70;;;;;;5056672;28;20028;-70
2022/06/10 06:13:02;;;;;;;8.70;2.85;;;13.70;97.70;;;;;;5054671;28;20040;-70
2022/06/10 06:15:28;;;;;;;10.98;2.95;;;13.80;96.50;;;;;;5052277;28;20078;-70
2022/06/10 06:17:54;;;;;;;10.98;3.17;;;13.90;95.80;;;;;;5056629;28;20444;-69
2022/06/10 06:20:23;;;;;;;10.73;2.83;;;13.90;95.20;;;;;;5057466;28;20135;-69
2022/06/10 06:22:49;;;;;;;11.35;2.38;;;14.00;95.50;;;;;;5057402;28;20083;-69
2022/06/10 06:25:18;;;;;;;8.20;2.58;;;14.10;95.00;;;;;;5056305;28;20021;-70
2022/06/10 06:27:46;;;;;;;9.55;2.63;;;14.20;94.70;;;;;;5057493;28;20075;-70
2022/06/10 06:30:21;;;;;;;9.20;2.42;;;14.30;94.30;;;;;;5056046;28;20029;-69
2022/06/10 06:32:49;;;;;;;10.70;2.55;;;14.40;94.20;;;;;;5055388;28;20025;-69
2022/06/10 06:35:15;;;;;;;12.13;2.55;;;14.50;94.30;;;;;;5056047;28;20385;-70
2022/06/10 06:37:44;;;;;;;10.32;2.55;;;14.60;94.10;;;;;;5057054;28;20421;-69
2022/06/10 06:40:11;;;;;;;10.38;2.72;;;14.60;94.10;;;;;;5056716;28;20425;-70
2022/06/10 06:42:37;;;;;;;7.78;2.53;;;14.80;93.90;;;;;;5055989;28;20443;-69
2022/06/10 06:45:05;;;;;;;7.95;2.50;;;14.90;93.80;;;;;;5055579;28;20100;-69
2022/06/10 06:47:31;;;;;;;13.70;3.05;;;15.00;93.70;;;;;;5055720;28;20017;-69
2022/06/10 06:49:58;;;;;;;7.72;2.30;;;15.20;93.30;;;;;;5056515;28;20025;-69
2022/06/10 06:52:23;;;;;;;9.38;2.55;;;15.20;92.30;;;;;;5056786;28;20033;-69
2022/06/10 06:54:52;;;;;;;11.05;2.70;;;15.30;92.30;;;;;;5056916;28;20079;-70
2022/06/10 06:57:18;;;;;;;11.07;2.58;;;15.40;92.10;;;;;;5056698;28;20083;-70
2022/06/10 06:59:44;;;;;;;7.75;2.40;;;15.40;92.00;;;;;;5055453;28;20040;-69
2022/06/10 07:02:13;;;;;;;8.27;2.40;;;15.50;91.30;;;;;;5054683;28;20025;-69
2022/06/10 07:04:39;;;;;;;11.18;3.28;;;15.70;91.30;;;;;;5056587;28;20092;-69
2022/06/10 07:07:05;;;;;;;9.00;3.17;;;15.80;90.50;;;;;;5056510;28;20499;-69
2022/06/10 07:09:31;;;;;;;11.32;2.85;;;15.90;90.10;;;;;;5056501;28;20032;-69
2022/06/10 07:11:57;;;;;;;10.25;3.28;;;15.90;91.10;;;;;;5056636;28;20082;-69
2022/06/10 07:14:23;;;;;;;8.88;2.60;;;16.00;90.00;;;;;;5055099;28;20477;-71
2022/06/10 07:16:52;;;;;;;11.43;3.40;;;16.20;89.90;;;;;;5055528;28;20040;-71
2022/06/10 07:19:21;;;;;;;8.45;2.90;;;16.30;88.70;;;;;;5056365;28;20025;-70
2022/06/10 07:21:46;;;;;;;9.13;2.67;;;16.60;88.00;;;;;;5056410;28;20029;-70
2022/06/10 07:24:12;;;;;;;4.85;1.98;;;17.20;86.70;;;;;;5056317;28;20291;-70
2022/06/10 07:26:39;;;;;;;6.63;2.00;;;18.30;84.00;;;;;;5056229;28;20021;-70
2022/06/10 07:29:05;;;;;;;8.05;2.13;;;19.70;80.80;;;;;;5055434;28;20487;-70
2022/06/10 07:31:31;;;;;;;10.00;1.60;;;20.80;76.60;;;;;;5054973;28;20056;-70
2022/06/10 07:33:58;;;;;;;5.40;1.40;;;21.50;73.20;;;;;;5052951;28;20055;-70
2022/06/10 07:36:26;;;;;;;6.55;1.45;;;21.90;71.40;;;;;;5052818;28;20029;-70
2022/06/10 07:38:53;;;;;;;6.82;1.60;;;22.30;70.00;;;;;;5056125;28;20025;-70
2022/06/10 07:44:03;;;;;;;4.45;1.17;;;23.40;65.80;;;;;;5055175;28;20495;-70
2022/06/10 07:46:29;;;;;;;9.73;1.90;;;23.90;65.60;;;;;;5049882;28;20035;-70
2022/06/10 07:48:54;;;;;;;6.63;1.77;;;23.60;67.50;;;;;;5055909;28;20103;-70
2022/06/10 07:51:20;;;;;;;5.25;1.58;;;23.40;67.60;;;;;;5056098;28;20028;-70
2022/06/10 07:53:47;;;;;;;7.15;1.60;;;23.50;68.30;;;;;;5053183;28;20112;-70
2022/06/10 07:56:14;;;;;;;6.68;1.90;;;23.70;67.40;;;;;;5054485;28;20037;-69
2022/06/10 07:58:40;;;;;;;10.77;1.85;;;23.90;65.30;;;;;;5055352;28;20029;-70
2022/06/10 08:01:06;;;;;;;8.10;2.25;;;23.90;65.60;;;;;;5054374;28;20029;-70
2022/06/10 08:03:32;;;;;;;7.25;2.03;;;23.90;66.60;;;;;;5055903;28;20028;-69
2022/06/10 08:05:59;;;;;;;6.88;1.40;;;24.30;66.00;;;;;;5055834;28;20025;-70
2022/06/10 08:08:25;;;;;;;6.20;1.65;;;24.20;65.20;;;;;;5055879;28;20048;-70
2022/06/10 08:10:51;;;;;;;6.43;1.58;;;24.30;63.70;;;;;;5053971;28;20028;-70
2022/06/10 08:13:17;;;;;;;7.00;1.42;;;24.90;62.40;;;;;;5054453;28;20021;-70
2022/06/10 08:15:44;;;;;;;7.22;1.90;;;24.30;62.50;;;;;;5048834;28;20021;-69
2022/06/10 08:18:11;;;;;;;7.90;1.98;;;22.20;67.20;;;;;;5055544;28;20021;-70
2022/06/10 08:23:24;;;;;;;5.35;2.00;;;19.90;72.50;;;;;;5055952;28;20032;-70
2022/06/10 08:25:51;;;;;;;7.38;1.60;;;20.30;72.30;;;;;;5053808;28;20397;-69
2022/06/10 08:28:17;;;;;;;5.07;1.48;;;21.90;69.30;;;;;;5055662;28;20305;-70
2022/06/10 08:30:44;;;;;;;5.97;1.48;;;22.90;66.30;;;;;;5053238;28;20032;-70
2022/06/10 08:33:10;;;;;;;8.25;1.63;;;23.60;64.40;;;;;;5055484;28;20302;-70
2022/06/10 08:35:37;;;;;;;9.77;2.10;;;24.20;63.60;;;;;;5054775;28;20033;-70
2022/06/10 08:38:05;;;;;;;8.38;2.13;;;23.40;64.20;;;;;;5055402;28;20025;-70
2022/06/10 08:41:21;;;;;;;7.75;2.00;;;23.90;64.20;;;;;;5054975;28;20045;-69
2022/06/10 08:44:10;;;;;;;7.03;1.48;;;25.40;62.50;;;;;;5034598;28;20048;-70
2022/06/10 08:46:51;;;;;;;5.93;1.42;;;25.70;60.50;;;;;;5035390;28;20025;-70
2022/06/10 08:49:39;;;;;;;11.52;2.83;;;26.10;60.10;;;;;;5052616;28;20022;-70
2022/06/10 08:52:39;;;;;;;9.75;2.10;;;26.10;60.80;;;;;;5055385;28;20025;-70
2022/06/10 08:55:39;;;;;;;5.63;1.40;;;25.80;63.60;;;;;;5036008;28;20033;-70
2022/06/10 08:58:16;;;;;;;6.07;1.85;;;26.50;60.50;;;;;;5048346;28;20021;-70
2022/06/10 09:00:44;;;;;;;4.35;1.42;;;27.30;58.50;;;;;;5057608;28;20025;-70
2022/06/10 09:03:34;;;;;;;7.90;1.80;;;26.20;59.50;;;;;;5059027;28;20025;-70
2022/06/10 09:06:05;;;;;;;6.82;2.33;;;24.60;63.50;;;;;;5059042;28;20017;-70
2022/06/10 09:08:42;;;;;;;10.18;2.05;;;22.80;65.30;;;;;;5055107;28;20067;-70
2022/06/10 09:11:25;;;;;;;5.85;1.48;;;21.30;68.60;;;;;;5044488;28;20033;-70
2022/06/10 09:13:59;;;;;;;6.47;1.83;;;20.90;70.00;;;;;;5058708;28;20075;-69
2022/06/10 09:16:39;;;;;;;5.75;1.63;;;20.70;71.40;;;;;;5056640;28;20056;-70
2022/06/10 09:19:26;;;;;;;9.02;1.65;;;21.90;70.00;;;;;;5053974;28;20309;-70
2022/06/10 09:22:10;;;;;;;6.70;1.60;;;24.10;64.80;;;;;;5057605;28;20405;-69
2022/06/10 09:24:52;;;;;;;9.18;2.03;;;24.20;61.00;;;;;;5057539;28;20091;-70
2022/06/10 09:27:31;;;;;;;6.28;1.27;;;24.10;63.60;;;;;;5058622;28;20361;-70
2022/06/10 09:29:58;;;;;;;7.03;1.40;;;25.20;62.00;;;;;;5056195;28;20057;-70
2022/06/10 09:32:36;;;;;;;6.57;1.58;;;26.40;60.50;;;;;;5055929;28;20451;-70
2022/06/10 09:35:12;;;;;;;9.52;1.90;;;26.70;59.40;;;;;;5056187;28;20503;-70
2022/06/10 09:38:02;;;;;;;13.60;1.95;;;25.10;60.90;;;;;;5056455;28;20040;-70
2022/06/10 09:40:55;;;;;;;5.35;1.55;;;23.70;63.60;;;;;;5056785;28;20413;-70
2022/06/10 09:43:55;;;;;;;6.03;1.45;;;22.50;66.20;;;;;;5057140;28;20112;-70
2022/06/10 09:47:08;;;;;;;8.75;2.20;;;22.00;71.70;;;;;;5055468;28;20038;-70
2022/06/10 09:50:00;;;;;;;7.43;2.13;;;22.60;67.10;;;;;;5057228;28;20040;-69
2022/06/10 09:52:44;;;;;;;7.97;1.70;;;22.90;65.50;;;;;;5075996;28;20536;-70
2022/06/10 09:55:24;;;;;;;;;;;23.00;66.00;;;;;;5061656;28;20321;-69
2022/06/10 09:58:11;;;;;;;6.60;1.38;;;23.90;65.40;;;;;;5057980;28;19904;-69
2022/06/10 10:01:02;;;;;;;4.95;1.27;;;24.90;63.50;;;;;;5055798;28;20051;-69
2022/06/10 10:03:46;;;;;;;32.10;3.10;;;26.30;60.30;;;;;;5057842;28;20021;-69
2022/06/10 10:06:42;;;;;;;7.22;1.30;;;27.00;59.30;;;;;;5055569;28;20025;-69
2022/06/10 10:09:17;;;;;;;6.72;1.50;;;26.50;57.70;;;;;;5056673;28;20059;-71
2022/06/10 10:12:08;;;;;;;3.88;1.20;;;26.60;59.40;;;;;;5057776;28;20044;-71
2022/06/10 10:15:02;;;;;;;5.80;1.45;;;26.50;59.20;;;;;;5054534;28;20033;-70
2022/06/10 10:18:06;;;;;;;6.55;1.70;;;25.10;58.80;;;;;;5057693;28;20021;-72
2022/06/10 10:20:35;;;;;;;;;;;23.80;61.70;;;;;;5056857;28;20338;-70
2022/06/10 10:23:22;;;;;;;7.18;1.70;;;22.50;66.90;;;;;;5055972;28;19944;-70
2022/06/10 10:25:48;;;;;;;8.50;1.85;;;22.40;68.10;;;;;;5037511;28;20163;-69
2022/06/10 10:28:19;;;;;;;5.70;1.50;;;22.60;66.10;;;;;;5055170;28;20036;-70
2022/06/10 10:31:00;;;;;;;5.28;1.58;;;23.10;64.50;;;;;;5055217;28;20032;-69
2022/06/10 10:33:26;;;;;;;5.13;1.65;;;23.90;63.70;;;;;;5054031;28;20033;-69
2022/06/10 10:35:55;;;;;;;7.82;1.40;;;25.80;60.20;;;;;;5056002;28;20425;-69
2022/06/10 10:38:37;;;;;;;6.22;1.50;;;26.80;58.60;;;;;;5056083;28;20102;-70
2022/06/10 10:41:25;;;;;;;5.43;1.35;;;26.50;59.10;;;;;;5055934;28;20191;-69
2022/06/10 10:43:55;;;;;;;5.38;1.40;;;26.10;59.60;;;;;;5055193;28;20029;-70
2022/06/10 10:46:29;;;;;;;5.95;1.63;;;26.10;60.00;;;;;;5055950;28;20021;-69
2022/06/10 10:48:57;;;;;;;7.38;1.70;;;25.10;60.40;;;;;;5055926;28;20048;-69
2022/06/10 10:51:31;;;;;;;7.95;2.00;;;23.60;63.20;;;;;;5054578;28;20032;-68
2022/06/10 10:54:22;;;;;;;6.30;1.50;;;22.50;66.60;;;;;;5055891;28;20796;-69
2022/06/10 10:56:51;;;;;;;6.93;1.70;;;21.70;68.40;;;;;;5055791;28;20053;-70
2022/06/10 10:59:32;;;;;;;6.68;1.80;;;21.20;68.10;;;;;;5054062;28;20029;-71
2022/06/10 11:01:58;;;;;;;9.70;1.88;;;20.50;70.20;;;;;;5054979;28;20117;-70
2022/06/10 11:04:43;;;;;;;4.60;1.70;;;20.30;71.60;;;;;;5055082;28;20032;-70
2022/06/10 11:07:16;;;;;;;7.97;2.10;;;20.40;70.80;;;;;;5055035;28;20180;-69
2022/06/10 11:10:04;;;;;;;4.15;1.30;;;20.60;71.80;;;;;;5050855;28;20031;-69
2022/06/10 11:12:32;;;;;;;8.65;1.98;;;21.00;71.20;;;;;;5055881;28;20033;-69
2022/06/10 11:15:03;;;;;;;6.47;1.50;;;21.30;72.20;;;;;;5051299;28;20104;-69
2022/06/10 11:17:30;;;;;;;6.70;1.70;;;21.70;70.40;;;;;;5055198;28;20029;-70
2022/06/10 11:20:22;;;;;;;6.57;1.90;;;22.30;66.10;;;;;;5050829;28;20116;-70
2022/06/10 11:22:48;;;;;;;6.40;1.83;;;22.60;66.60;;;;;;5056451;28;20063;-70
2022/06/10 11:25:22;;;;;;;5.05;1.42;;;22.80;65.40;;;;;;5056198;28;20053;-70
2022/06/10 11:27:48;;;;;;;6.15;1.70;;;22.90;64.40;;;;;;5056367;28;20079;-69
2022/06/10 11:30:13;;;;;;;7.85;2.17;;;23.00;64.90;;;;;;5055061;28;20053;-69
2022/06/10 11:32:49;;;;;;;7.15;1.50;;;23.60;64.50;;;;;;5053011;28;20029;-70
2022/06/10 11:35:31;;;;;;;7.97;2.10;;;24.30;62.70;;;;;;5055331;28;20064;-70
2022/06/10 11:38:24;;;;;;;7.05;1.38;;;24.90;63.00;;;;;;5054724;28;20075;-69
2022/06/10 11:40:56;;;;;;;8.60;1.80;;;25.70;62.30;;;;;;5054711;28;20086;-70
2022/06/10 11:43:33;;;;;;;6.45;1.52;;;26.30;59.90;;;;;;5055974;28;20330;-70
2022/06/10 11:46:34;;;;;;;5.85;1.35;;;26.30;59.60;;;;;;5053906;28;20045;-70
2022/06/10 11:49:22;;;;;;;5.07;1.48;;;24.90;60.30;;;;;;5054312;28;20029;-69
2022/06/10 11:52:18;;;;;;;6.38;1.70;;;24.20;63.30;;;;;;5055118;28;20017;-70
2022/06/10 11:54:53;;;;;;;7.00;1.35;;;24.20;62.80;;;;;;5055968;28;20029;-70
2022/06/10 12:00:15;;;;;;;6.00;1.55;;;24.50;63.50;;;;;;5054565;28;20036;-70
2022/06/10 12:02:56;;;;;;;3.88;1.40;;;24.70;64.10;;;;;;5054853;28;20029;-69
2022/06/10 12:05:40;;;;;;;5.30;1.42;;;25.60;62.70;;;;;;5055125;28;20025;-70
2022/06/10 12:08:29;;;;;;;4.90;1.38;;;26.40;57.80;;;;;;5054875;28;20052;-70
2022/06/10 12:11:03;;;;;;;4.10;1.00;;;25.90;58.80;;;;;;5055734;28;20059;-70
2022/06/10 12:13:37;;;;;;;7.65;1.50;;;25.20;58.70;;;;;;5055028;28;20329;-70
2022/06/10 12:16:05;;;;;;;4.57;1.40;;;25.70;61.40;;;;;;5053648;28;20372;-70
2022/06/10 12:18:35;;;;;;;4.80;1.40;;;26.10;61.00;;;;;;5054709;28;20108;-70
2022/06/10 12:21:06;;;;;;;6.45;1.90;;;26.00;60.90;;;;;;5054918;28;20102;-69
2022/06/10 12:23:36;;;;;;;7.07;1.50;;;25.60;61.40;;;;;;5054961;28;20024;-69
2022/06/10 12:26:17;;;;;;;5.03;1.27;;;25.10;61.60;;;;;;5055663;28;20042;-70
2022/06/10 12:29:10;;;;;;;5.18;1.40;;;24.80;64.30;;;;;;5042798;28;20021;-69
2022/06/10 12:31:52;;;;;;;4.70;1.30;;;24.60;63.50;;;;;;5057251;28;20392;-69
2022/06/10 12:34:45;;;;;;;4.53;1.70;;;24.40;65.40;;;;;;5049699;28;20308;-69
2022/06/10 12:37:41;;;;;;;6.97;1.60;;;24.50;62.10;;;;;;5046062;28;20029;-70
2022/06/10 12:40:30;;;;;;;9.43;1.70;;;25.00;63.10;;;;;;5058191;28;20101;-70
2022/06/10 12:43:01;;;;;;;4.15;1.30;;;24.60;62.80;;;;;;5058085;28;20049;-69
2022/06/10 12:45:27;;;;;;;9.07;1.58;;;24.50;63.40;;;;;;5058195;28;20060;-69
2022/06/10 12:47:55;;;;;;;4.45;1.33;;;24.30;63.10;;;;;;5057355;28;20052;-70
2022/06/10 12:50:22;;;;;;;5.53;1.20;;;24.40;62.50;;;;;;5059242;28;20036;-69
2022/06/10 12:52:51;;;;;;;4.28;1.42;;;24.70;63.20;;;;;;5058279;28;20060;-70
2022/06/10 12:55:20;;;;;;;6.10;1.23;;;24.70;64.40;;;;;;5059095;28;20025;-70
2022/06/10 12:57:47;;;;;;;6.10;1.63;;;24.80;61.90;;;;;;5057318;28;20108;-69
2022/06/10 13:00:22;;;;;;;6.78;1.40;;;24.60;61.90;;;;;;5056830;28;20031;-69
2022/06/10 13:02:52;;;;;;;4.47;1.40;;;24.20;62.70;;;;;;5056105;28;20425;-70
2022/06/10 13:05:48;;;;;;;5.88;1.73;;;24.90;63.60;;;;;;5058860;28;20448;-69
2022/06/10 13:08:34;;;;;;;5.75;1.40;;;25.50;60.20;;;;;;5057414;28;20353;-70
2022/06/10 13:11:11;;;;;;;4.65;1.30;;;25.50;60.10;;;;;;5058896;28;20448;-70
2022/06/10 13:13:37;;;;;;;5.93;1.38;;;25.50;59.70;;;;;;5057732;28;20350;-70
2022/06/10 13:16:35;;;;;;;10.27;1.60;;;25.60;60.00;;;;;;5057676;28;20052;-69
2022/06/10 13:19:01;;;;;;;5.25;1.58;;;25.20;61.80;;;;;;5056598;28;20044;-70
2022/06/10 13:21:34;;;;;;;3.83;1.05;;;24.70;62.10;;;;;;5058692;28;20024;-69
2022/06/10 13:23:59;;;;;;;5.67;1.77;;;24.80;61.30;;;;;;5057541;28;20029;-69
2022/06/10 13:26:28;;;;;;;4.22;1.10;;;25.20;63.60;;;;;;5058566;28;20052;-69
2022/06/10 13:29:12;;;;;;;5.18;1.23;;;25.50;59.50;;;;;;5055753;28;20064;-69
2022/06/10 13:31:49;;;;;;;5.47;1.27;;;25.50;61.00;;;;;;5057396;28;20032;-69
2022/06/10 13:34:26;;;;;;;6.13;1.33;;;26.10;63.20;;;;;;5056625;28;20115;-69
2022/06/10 13:37:12;;;;;;;3.03;1.17;;;26.50;61.50;;;;;;5058264;28;20029;-69